Time;durP1;ratioP1;P1;durP2;ratioP2;P2;SDS_P1;SDS_P2;PMS_P1;PMS_P2;Temp;Humidity;BMP_temperature;BMP_pressure;BME280_temperature;BME280_humidity;BME280_pressure;Samples;Min_cycle;Max_cycle;Signal;HPM_P1;HPM_P2
2021/06/27 00:01:37;;;;;;;35.47;18.33;;;;;;;25.42;64.14;99370.94;5069801;28;20048;-65
2021/06/27 00:04:13;;;;;;;38.83;17.73;;;;;;;24.88;65.81;99374.88;5069737;28;20036;-68
2021/06/27 00:06:39;;;;;;;46.38;19.02;;;;;;;24.48;68.16;99371.34;5071165;28;20059;-65
2021/06/27 00:09:06;;;;;;;55.45;19.83;;;;;;;24.11;69.68;99355.81;5069710;28;20127;-66
2021/06/27 00:11:32;;;;;;;51.45;17.98;;;;;;;24.83;66.69;99370.94;5052476;28;20070;-67
2021/06/27 00:13:58;;;;;;;34.10;16.08;;;;;;;25.41;63.17;99347.81;5070894;28;20036;-68
2021/06/27 00:16:27;;;;;;;40.40;16.48;;;;;;;25.22;64.17;99366.53;5035432;28;20064;-68
2021/06/27 00:18:53;;;;;;;39.60;18.27;;;;;;;25.16;65.55;99369.75;5036530;28;20052;-66
2021/06/27 00:21:20;;;;;;;40.90;17.40;;;;;;;25.05;65.61;99367.19;5069441;28;20521;-69
2021/06/27 00:23:48;;;;;;;48.78;17.40;;;;;;;24.92;66.63;99362.91;5035729;28;20509;-68
2021/06/27 00:26:16;;;;;;;52.17;18.35;;;;;;;24.85;66.73;99363.59;5053575;28;20040;-66
2021/06/27 00:28:42;;;;;;;41.00;16.65;;;;;;;25.27;65.19;99356.28;5054069;28;20051;-68
2021/06/27 00:31:09;;;;;;;44.70;17.27;;;;;;;25.18;65.55;99354.41;5070533;28;20048;-66
2021/06/27 00:33:35;;;;;;;40.78;16.42;;;;;;;24.88;65.57;99369.53;5036720;28;20510;-69
2021/06/27 00:36:01;;;;;;;35.10;14.95;;;;;;;24.44;66.35;99361.91;5053629;28;20056;-67
2021/06/27 00:38:27;;;;;;;40.60;15.18;;;;;;;24.61;66.43;99356.78;5035670;28;20063;-68
2021/06/27 00:40:53;;;;;;;35.33;16.63;;;;;;;24.68;66.17;99365.09;5070305;28;20040;-69
2021/06/27 00:43:19;;;;;;;41.05;16.65;;;;;;;24.54;66.25;99370.84;5069898;28;20506;-66
2021/06/27 00:45:45;;;;;;;34.35;16.60;;;;;;;24.17;67.92;99357.94;5052099;28;20062;-66
2021/06/27 00:48:11;;;;;;;39.20;16.70;;;;;;;24.35;68.25;99367.06;5036485;28;20131;-64
2021/06/27 00:50:42;;;;;;;29.08;15.70;;;;;;;24.96;65.87;99352.78;5036755;28;20136;-67
2021/06/27 00:53:08;;;;;;;33.00;15.45;;;;;;;25.21;64.15;99344.25;5070777;28;20079;-65
2021/06/27 00:55:34;;;;;;;38.83;16.33;;;;;;;24.90;65.13;99351.50;5068866;28;20071;-66
2021/06/27 00:58:00;;;;;;;49.92;18.08;;;;;;;24.50;66.90;99369.38;5068589;28;20494;-69
2021/06/27 01:00:31;;;;;;;38.08;17.70;;;;;;;24.14;68.64;99366.22;5069619;28;20041;-66
2021/06/27 01:02:57;;;;;;;42.05;16.95;;;;;;;23.88;70.07;99378.31;5071118;28;20322;-65
2021/06/27 01:05:26;;;;;;;36.17;17.10;;;;;;;23.69;70.39;99374.50;5035379;28;20044;-64
2021/06/27 01:07:53;;;;;;;36.13;18.67;;;;;;;23.50;72.05;99366.28;5069496;28;20071;-64
2021/06/27 01:10:19;;;;;;;44.78;18.10;;;;;;;23.46;71.83;99380.88;5020460;28;20036;-65
2021/06/27 01:12:45;;;;;;;40.60;18.45;;;;;;;23.34;72.58;99377.41;5069418;28;20055;-64
2021/06/27 01:15:12;;;;;;;52.90;18.88;;;;;;;23.28;72.23;99375.25;5070844;28;20064;-64
2021/06/27 01:17:40;;;;;;;37.67;17.95;;;;;;;23.24;73.24;99367.63;5070763;28;20045;-64
2021/06/27 01:20:11;;;;;;;31.30;17.52;;;;;;;23.11;73.18;99363.28;5068798;28;20048;-66
2021/06/27 01:22:38;;;;;;;39.17;18.50;;;;;;;23.06;73.93;99362.81;5052229;28;20650;-67
2021/06/27 01:25:06;;;;;;;31.38;17.33;;;;;;;23.13;73.68;99365.84;5035611;28;20076;-65
2021/06/27 01:27:32;;;;;;;37.30;17.08;;;;;;;23.18;73.57;99370.78;5068920;28;20040;-64
2021/06/27 01:29:58;;;;;;;33.15;17.95;;;;;;;23.12;73.98;99359.66;5070069;28;20037;-66
2021/06/27 01:32:25;;;;;;;34.58;17.55;;;;;;;23.19;73.87;99367.16;5070269;28;20051;-63
2021/06/27 01:34:50;;;;;;;40.85;18.40;;;;;;;23.06;74.51;99359.31;5068966;28;20040;-66
2021/06/27 01:37:16;;;;;;;41.33;18.90;;;;;;;23.04;74.77;99362.09;5070077;28;20544;-64
2021/06/27 01:39:42;;;;;;;42.10;19.27;;;;;;;23.02;75.26;99353.34;5070036;28;20517;-65
2021/06/27 01:42:08;;;;;;;38.38;19.58;;;;;;;23.03;74.83;99354.19;5070082;28;20509;-65
2021/06/27 01:44:33;;;;;;;42.45;19.33;;;;;;;23.09;74.93;99359.91;5069045;28;20036;-64
2021/06/27 01:47:00;;;;;;;35.05;19.35;;;;;;;23.19;75.02;99369.81;5070069;28;20052;-64
2021/06/27 01:49:26;;;;;;;35.30;20.70;;;;;;;23.22;74.67;99370.41;5070029;28;20283;-65
2021/06/27 01:51:52;;;;;;;35.40;20.08;;;;;;;23.26;74.79;99365.66;5068955;28;20045;-65
2021/06/27 01:54:18;;;;;;;42.95;19.85;;;;;;;23.31;74.46;99368.81;5035545;28;20044;-65
2021/06/27 01:56:44;;;;;;;35.63;19.00;;;;;;;23.34;73.75;99364.06;5069978;28;20117;-66
2021/06/27 01:59:09;;;;;;;41.60;19.98;;;;;;;23.30;73.35;99343.09;5036163;28;20045;-66
2021/06/27 02:01:37;;;;;;;40.88;20.88;;;;;;;23.31;73.16;99344.78;5070611;28;20067;-66
2021/06/27 02:04:04;;;;;;;45.00;19.83;;;;;;;23.35;72.77;99343.56;5035908;28;20040;-65
2021/06/27 02:06:33;;;;;;;41.85;20.27;;;;;;;23.43;71.58;99354.44;5035540;28;20131;-66
2021/06/27 02:09:00;;;;;;;36.88;19.70;;;;;;;23.52;71.34;99359.00;5052523;28;20486;-67
2021/06/27 02:11:27;;;;;;;46.13;20.23;;;;;;;23.62;70.81;99357.28;5070698;28;20093;-66
2021/06/27 02:13:55;;;;;;;35.17;19.67;;;;;;;23.64;70.37;99333.97;5036562;28;20139;-65
2021/06/27 02:16:21;;;;;;;40.88;19.10;;;;;;;23.82;70.09;99336.09;5035955;28;20067;-66
2021/06/27 02:18:49;;;;;;;38.15;20.02;;;;;;;24.01;69.17;99346.88;5070347;28;20045;-66
2021/06/27 02:21:23;;;;;;;37.83;20.63;;;;;;;24.09;68.29;99334.56;5069063;28;20097;-65
2021/06/27 02:23:50;;;;;;;38.03;20.35;;;;;;;24.33;67.67;99347.63;5055124;28;20075;-65
2021/06/27 02:26:17;;;;;;;37.75;22.05;;;;;;;24.97;65.51;99346.44;5039894;28;20044;-65
2021/06/27 02:28:43;;;;;;;34.65;20.35;;;;;;;25.79;62.32;99355.00;5039697;28;20048;-66
2021/06/27 02:31:09;;;;;;;36.25;18.35;;;;;;;26.45;60.68;99356.84;5073960;28;20108;-66
2021/06/27 02:33:35;;;;;;;40.60;17.95;;;;;;;27.13;58.67;99357.38;5072669;28;20052;-66
2021/06/27 02:36:00;;;;;;;33.88;17.25;;;;;;;27.68;56.94;99355.44;5073433;28;20044;-66
2021/06/27 02:38:26;;;;;;;33.67;17.17;;;;;;;28.24;55.26;99364.06;5073871;28;20078;-66
2021/06/27 02:40:54;;;;;;;40.05;17.85;;;;;;;28.66;53.53;99369.53;5074100;28;20059;-65
2021/06/27 02:43:20;;;;;;;32.58;16.70;;;;;;;29.01;52.50;99357.78;5072797;28;20414;-65
2021/06/27 02:45:47;;;;;;;34.95;18.13;;;;;;;29.28;51.34;99349.41;5038897;28;20044;-66
2021/06/27 02:48:13;;;;;;;30.00;16.80;;;;;;;29.63;50.55;99353.66;5039088;28;20071;-67
2021/06/27 02:50:39;;;;;;;28.55;16.52;;;;;;;30.02;48.97;99353.88;5055765;28;20040;-65
2021/06/27 02:53:06;;;;;;;34.67;15.80;;;;;;;30.49;48.27;99365.75;5073583;28;20044;-65
2021/06/27 02:55:32;;;;;;;33.63;15.02;;;;;;;30.91;47.79;99358.16;5039159;28;20044;-66
2021/06/27 02:57:58;;;;;;;34.15;15.80;;;;;;;31.36;47.04;99369.28;5022819;28;20090;-66
2021/06/27 03:00:24;;;;;;;39.50;14.90;;;;;;;31.71;45.62;99378.66;5072277;28;20419;-65
2021/06/27 03:02:50;;;;;;;33.97;15.43;;;;;;;32.03;44.61;99378.41;5038927;28;20134;-65
2021/06/27 03:05:16;;;;;;;32.28;15.30;;;;;;;32.33;43.44;99373.91;5073280;28;20467;-65
2021/06/27 03:07:43;;;;;;;28.63;15.68;;;;;;;32.61;42.94;99373.25;5055563;28;20040;-65
2021/06/27 03:10:11;;;;;;;30.00;14.98;;;;;;;33.00;42.82;99384.66;5072976;28;20052;-65
2021/06/27 03:12:40;;;;;;;29.08;14.77;;;;;;;33.24;42.69;99350.09;5038827;28;20136;-65
2021/06/27 03:15:06;;;;;;;33.53;15.77;;;;;;;33.55;42.91;99369.66;5037961;28;20458;-66
2021/06/27 03:17:32;;;;;;;38.72;16.35;;;;;;;33.70;43.27;99356.88;5055351;28;20058;-66
2021/06/27 03:19:58;;;;;;;39.17;17.38;;;;;;;33.85;42.35;99364.09;5072900;28;20044;-65
2021/06/27 03:22:24;;;;;;;36.88;17.30;;;;;;;34.06;42.44;99366.78;5073094;28;20098;-65
2021/06/27 03:24:49;;;;;;;39.95;18.10;;;;;;;34.19;42.18;99361.47;5073075;28;20036;-66
2021/06/27 03:27:15;;;;;;;34.85;17.65;;;;;;;34.32;41.21;99369.75;5073056;28;20074;-65
2021/06/27 03:29:41;;;;;;;34.22;17.88;;;;;;;34.52;40.39;99363.59;5072867;28;20052;-64
2021/06/27 03:32:07;;;;;;;34.28;16.70;;;;;;;34.77;39.21;99359.31;5071230;28;20451;-64
2021/06/27 03:34:33;;;;;;;38.25;17.38;;;;;;;35.03;38.46;99369.50;5073158;28;20044;-65
2021/06/27 03:36:59;;;;;;;44.20;17.00;;;;;;;35.25;38.50;99368.31;5072602;28;20067;-66
2021/06/27 03:39:25;;;;;;;27.80;15.60;;;;;;;35.47;36.94;99366.31;5071407;28;20052;-66
2021/06/27 03:41:54;;;;;;;33.33;15.98;;;;;;;35.74;36.52;99355.47;5038211;28;20125;-66
2021/06/27 03:44:24;;;;;;;40.35;16.05;;;;;;;35.90;36.56;99349.63;5054545;28;20048;-65
2021/06/27 03:46:49;;;;;;;29.58;14.88;;;;;;;36.14;35.71;99362.59;5054335;28;20695;-67
2021/06/27 03:49:15;;;;;;;29.30;15.68;;;;;;;36.45;35.37;99358.41;5072206;28;20052;-66
2021/06/27 03:51:41;;;;;;;31.25;14.98;;;;;;;36.75;35.03;99359.56;5072325;28;20040;-66
2021/06/27 03:54:07;;;;;;;28.55;15.30;;;;;;;36.87;34.64;99374.22;5054637;28;20041;-65
2021/06/27 03:56:35;;;;;;;38.38;16.38;;;;;;;37.12;33.78;99365.28;5054465;28;20055;-66
2021/06/27 03:59:00;;;;;;;33.03;15.30;;;;;;;37.44;33.57;99372.50;5037990;28;20048;-65
2021/06/27 04:01:26;;;;;;;35.53;16.90;;;;;;;37.72;32.45;99377.56;5072880;28;20041;-65
2021/06/27 04:03:52;;;;;;;34.83;15.27;;;;;;;38.05;31.78;99381.94;5072471;28;20190;-66
2021/06/27 04:06:17;;;;;;;30.92;15.60;;;;;;;38.31;31.67;99381.72;5072907;28;20041;-67
2021/06/27 04:08:43;;;;;;;34.92;19.10;;;;;;;38.28;31.80;99363.06;5039305;28;20063;-66
2021/06/27 04:11:09;;;;;;;40.08;19.35;;;;;;;38.28;32.34;99365.78;5073462;28;20044;-65
2021/06/27 04:13:36;;;;;;;39.38;17.33;;;;;;;38.70;31.97;99371.47;5073555;28;20044;-65
2021/06/27 04:16:03;;;;;;;32.65;17.95;;;;;;;38.92;32.00;99371.84;5038854;28;20122;-66
2021/06/27 04:18:29;;;;;;;35.45;19.48;;;;;;;38.96;31.28;99367.56;5055878;28;20044;-66
2021/06/27 04:20:56;;;;;;;57.90;25.20;;;;;;;38.85;29.12;99366.44;5039002;28;20036;-65
2021/06/27 04:23:23;;;;;;;53.35;25.65;;;;;;;38.90;29.02;99369.34;5038833;28;20519;-66
2021/06/27 04:25:49;;;;;;;46.65;25.48;;;;;;;38.65;29.16;99363.97;5055027;28;20110;-67
2021/06/27 04:28:15;;;;;;;46.85;23.55;;;;;;;38.64;29.63;99370.47;5072500;28;20509;-65
2021/06/27 04:30:42;;;;;;;44.80;23.98;;;;;;;38.43;30.30;99376.34;5055032;28;20490;-66
2021/06/27 04:33:08;;;;;;;45.97;23.92;;;;;;;38.60;30.17;99376.59;5039003;28;20040;-66
2021/06/27 04:35:36;;;;;;;55.35;25.70;;;;;;;38.05;31.46;99380.06;5055290;28;20090;-67
2021/06/27 04:38:07;;;;;;;43.03;25.75;;;;;;;37.67;31.38;99377.38;5071992;28;20131;-68
2021/06/27 04:40:34;;;;;;;;;;;;;;;37.33;33.57;99375.94;5071980;28;20044;-67
2021/06/27 04:43:00;;;;;;;42.80;21.52;;;;;;;36.87;36.00;99379.66;5071579;28;19917;-66
2021/06/27 04:45:25;;;;;;;51.05;19.55;;;;;;;36.95;35.58;99370.41;5038350;28;20044;-66
2021/06/27 04:47:51;;;;;;;60.22;20.15;;;;;;;36.34;37.17;99373.50;5072759;28;20131;-66
2021/06/27 04:50:17;;;;;;;40.58;18.80;;;;;;;35.84;37.62;99366.81;5071512;28;20048;-66
2021/06/27 04:52:43;;;;;;;41.47;19.70;;;;;;;35.85;37.15;99363.88;5072943;28;20127;-67
2021/06/27 04:55:10;;;;;;;40.22;18.80;;;;;;;36.14;35.79;99361.75;5072906;28;20095;-66
2021/06/27 04:57:36;;;;;;;30.70;16.75;;;;;;;36.62;35.11;99339.69;5038396;28;20041;-67
2021/06/27 05:00:04;;;;;;;31.83;15.18;;;;;;;37.82;32.27;99357.97;5073030;28;20579;-66
2021/06/27 05:02:31;;;;;;;34.78;14.05;;;;;;;38.39;31.10;99350.53;5038876;28;20450;-66
2021/06/27 05:04:56;;;;;;;23.30;11.38;;;;;;;38.84;29.38;99355.75;5072928;28;20066;-66
2021/06/27 05:07:22;;;;;;;20.00;11.27;;;;;;;38.23;29.42;99351.13;5072317;28;20179;-66
2021/06/27 05:09:49;;;;;;;27.75;10.02;;;;;;;39.25;27.76;99366.78;5072443;28;20040;-70
2021/06/27 05:12:15;;;;;;;30.05;10.35;;;;;;;39.89;26.46;99356.97;5072041;28;20049;-66
2021/06/27 05:14:41;;;;;;;19.48;10.90;;;;;;;39.84;26.50;99348.63;5072530;28;20040;-66
2021/06/27 05:17:07;;;;;;;27.58;11.88;;;;;;;40.37;25.56;99344.19;5072728;28;20063;-66
2021/06/27 05:19:33;;;;;;;26.58;11.55;;;;;;;39.93;25.93;99339.03;5072414;28;20044;-66
2021/06/27 05:21:59;;;;;;;32.33;10.57;;;;;;;39.87;25.60;99348.16;5072328;28;20129;-66
2021/06/27 05:24:25;;;;;;;21.15;10.70;;;;;;;39.71;26.34;99348.84;5071996;28;20478;-66
2021/06/27 05:26:51;;;;;;;22.08;9.60;;;;;;;39.89;26.01;99353.41;5071975;28;20072;-67
2021/06/27 05:29:16;;;;;;;25.02;9.40;;;;;;;39.90;25.72;99353.16;5038258;28;20050;-66
2021/06/27 05:31:42;;;;;;;18.08;8.48;;;;;;;39.36;27.18;99357.78;5072622;28;20083;-66
2021/06/27 05:34:08;;;;;;;23.33;8.45;;;;;;;38.94;27.85;99347.81;5072684;28;20041;-66
2021/06/27 05:36:37;;;;;;;16.42;7.82;;;;;;;38.78;28.25;99349.28;5072473;28;20036;-66
2021/06/27 05:39:07;;;;;;;20.42;8.50;;;;;;;38.38;28.53;99344.22;5054274;28;20052;-65
2021/06/27 05:41:34;;;;;;;18.97;8.57;;;;;;;38.20;29.21;99341.47;5071020;28;20131;-65
2021/06/27 05:44:00;;;;;;;18.15;8.32;;;;;;;38.96;28.30;99345.69;5070862;28;20547;-67
2021/06/27 05:46:26;;;;;;;14.93;7.38;;;;;;;39.22;27.64;99353.56;5072360;28;20494;-67
2021/06/27 05:48:52;;;;;;;19.90;8.60;;;;;;;39.50;27.69;99344.78;5071960;28;20055;-66
2021/06/27 05:51:18;;;;;;;20.42;8.50;;;;;;;39.75;27.52;99344.56;5071808;28;20047;-66
2021/06/27 05:53:44;;;;;;;18.42;8.10;;;;;;;39.87;27.09;99341.84;5071561;28;20048;-67
2021/06/27 05:56:10;;;;;;;14.85;7.13;;;;;;;39.97;27.09;99347.59;5070475;28;20041;-66
2021/06/27 05:58:40;;;;;;;12.32;6.18;;;;;;;39.19;27.35;99351.28;5056473;28;20047;-65
2021/06/27 06:01:08;;;;;;;15.80;6.45;;;;;;;38.94;27.87;99339.63;5075189;28;20044;-67
2021/06/27 06:03:34;;;;;;;18.10;5.93;;;;;;;39.00;27.77;99341.44;5040027;28;20040;-66
2021/06/27 06:06:00;;;;;;;16.38;6.75;;;;;;;38.70;28.45;99328.56;5057538;28;20087;-65
2021/06/27 06:08:26;;;;;;;13.70;6.72;;;;;;;39.21;27.90;99340.09;5075290;28;20041;-67
2021/06/27 06:10:52;;;;;;;14.98;6.50;;;;;;;38.85;28.06;99332.78;5075386;28;20055;-67
2021/06/27 06:13:18;;;;;;;18.92;6.15;;;;;;;38.71;27.87;99322.03;5075204;28;20041;-68
2021/06/27 06:15:44;;;;;;;13.85;6.40;;;;;;;38.69;27.95;99329.63;5073662;28;20072;-68
2021/06/27 06:18:09;;;;;;;12.52;6.80;;;;;;;38.59;28.33;99332.00;5075546;28;20044;-68
2021/06/27 06:20:35;;;;;;;15.55;6.75;;;;;;;38.67;28.87;99331.75;5075237;28;20087;-68
2021/06/27 06:23:01;;;;;;;10.77;7.05;;;;;;;39.20;27.86;99324.75;5075273;28;20513;-67
2021/06/27 06:25:27;;;;;;;8.43;6.45;;;;;;;39.21;27.79;99330.00;5075078;28;20036;-66
2021/06/27 06:27:52;;;;;;;11.15;6.57;;;;;;;39.23;27.84;99325.13;5075506;28;20037;-67
2021/06/27 06:30:18;;;;;;;17.65;7.00;;;;;;;39.55;27.73;99324.91;5075182;28;20121;-67
2021/06/27 06:32:44;;;;;;;12.40;6.43;;;;;;;39.49;27.09;99329.41;5073308;28;20033;-67
2021/06/27 06:35:10;;;;;;;11.13;6.50;;;;;;;39.90;26.87;99325.75;5074092;28;20050;-67
2021/06/27 06:37:36;;;;;;;14.27;6.40;;;;;;;39.70;26.87;99331.59;5023578;28;20039;-67
2021/06/27 06:40:06;;;;;;;14.43;7.00;;;;;;;38.93;27.57;99324.28;5075113;28;20040;-66
2021/06/27 06:42:32;;;;;;;11.73;6.85;;;;;;;39.92;26.24;99323.66;5057156;28;20051;-66
2021/06/27 06:44:58;;;;;;;14.10;6.63;;;;;;;39.71;26.42;99324.22;5023826;28;20040;-65
2021/06/27 06:47:24;;;;;;;10.10;6.57;;;;;;;40.34;25.75;99320.78;5073402;28;20064;-65
2021/06/27 06:49:49;;;;;;;18.40;8.88;;;;;;;40.36;25.90;99321.41;5074454;28;20048;-67
2021/06/27 06:52:15;;;;;;;9.07;6.70;;;;;;;39.18;26.95;99330.47;5074349;28;20093;-67
2021/06/27 06:54:41;;;;;;;10.07;6.80;;;;;;;38.98;26.92;99311.56;5070669;28;20127;-66
2021/06/27 06:57:07;;;;;;;15.18;6.78;;;;;;;39.07;27.12;99310.19;5071751;28;20140;-67
2021/06/27 06:59:33;;;;;;;13.98;6.63;;;;;;;39.13;27.28;99318.53;5072865;28;20048;-66
2021/06/27 07:01:59;;;;;;;16.45;7.55;;;;;;;39.12;27.14;99322.34;5019188;28;20044;-69
2021/06/27 07:04:25;;;;;;;15.68;6.57;;;;;;;39.51;26.73;99320.97;5070560;28;20051;-68
2021/06/27 07:06:51;;;;;;;23.25;10.73;;;;;;;39.53;26.30;99308.72;5018088;28;20055;-67
2021/06/27 07:09:17;;;;;;;20.48;9.25;;;;;;;39.97;25.58;99312.81;5068421;28;20381;-66
2021/06/27 07:11:43;;;;;;;11.60;7.80;;;;;;;39.81;26.10;99307.19;5067329;28;20055;-67
2021/06/27 07:14:09;;;;;;;11.18;6.70;;;;;;;39.53;26.68;99322.41;5067014;28;20048;-69
2021/06/27 07:16:35;;;;;;;20.38;6.85;;;;;;;39.56;26.63;99323.84;5066375;28;20079;-69
2021/06/27 07:19:00;;;;;;;19.73;6.60;;;;;;;38.93;27.28;99313.31;5065525;28;20044;-69
2021/06/27 07:21:27;;;;;;;16.58;7.00;;;;;;;39.48;26.52;99324.16;5066686;28;20507;-71
2021/06/27 07:23:53;;;;;;;21.52;7.13;;;;;;;39.52;27.12;99307.03;5064811;28;20036;-71
2021/06/27 07:26:20;;;;;;;12.88;7.78;;;;;;;39.65;27.15;99319.69;5066087;28;20444;-67
2021/06/27 07:28:45;;;;;;;13.35;7.47;;;;;;;40.37;26.25;99314.84;5066425;28;20050;-66
2021/06/27 07:31:11;;;;;;;16.40;7.25;;;;;;;39.70;26.43;99319.81;5064238;28;20131;-68
2021/06/27 07:33:37;;;;;;;15.75;7.60;;;;;;;39.64;27.22;99313.38;5064704;28;20126;-67
2021/06/27 07:36:04;;;;;;;17.65;7.10;;;;;;;40.50;26.43;99321.97;5063827;28;20055;-69
2021/06/27 07:38:30;;;;;;;13.43;7.07;;;;;;;41.98;24.64;99320.97;5062274;28;20055;-68
2021/06/27 07:40:56;;;;;;;12.65;7.45;;;;;;;42.04;24.38;99324.66;5063062;28;20040;-66
2021/06/27 07:43:21;;;;;;;14.18;6.80;;;;;;;41.85;24.31;99324.91;5063748;28;20150;-66
2021/06/27 07:45:47;;;;;;;15.73;12.23;;;;;;;41.18;23.72;99322.03;5064956;28;20604;-68
2021/06/27 07:48:13;;;;;;;15.73;9.52;;;;;;;40.71;23.69;99320.50;5063946;28;20055;-68
2021/06/27 07:50:39;;;;;;;11.85;5.82;;;;;;;40.13;25.04;99308.50;5065608;28;20132;-66
2021/06/27 07:53:05;;;;;;;12.65;6.75;;;;;;;40.26;25.46;99318.41;5065416;28;20040;-66
2021/06/27 07:55:32;;;;;;;11.93;6.28;;;;;;;39.69;26.63;99323.63;5066708;28;20028;-66
2021/06/27 07:57:58;;;;;;;13.65;6.28;;;;;;;38.53;27.53;99321.97;5032214;28;20040;-68
2021/06/27 08:00:24;;;;;;;10.63;6.35;;;;;;;39.52;26.79;99322.63;5065233;28;20055;-67
2021/06/27 08:02:50;;;;;;;12.25;5.38;;;;;;;39.94;23.94;99310.56;5065617;28;20506;-67
2021/06/27 08:05:16;;;;;;;6.97;4.70;;;;;;;40.42;22.58;99317.72;5033597;28;20032;-68
2021/06/27 08:07:41;;;;;;;7.35;4.85;;;;;;;40.11;23.24;99318.88;5068029;28;20074;-68
2021/06/27 08:10:08;;;;;;;10.00;4.88;;;;;;;40.32;23.29;99311.97;5067272;28;20403;-69
2021/06/27 08:12:36;;;;;;;8.07;5.40;;;;;;;39.44;24.22;99309.25;5067645;28;20048;-66
2021/06/27 08:15:03;;;;;;;6.18;4.95;;;;;;;39.27;24.54;99309.06;5066767;28;20127;-67
2021/06/27 08:17:30;;;;;;;12.23;5.45;;;;;;;37.93;26.29;99313.56;5050919;28;20437;-69
2021/06/27 08:19:55;;;;;;;8.10;5.55;;;;;;;37.79;26.82;99304.63;5067903;28;20048;-69
2021/06/27 08:22:21;;;;;;;8.30;5.72;;;;;;;38.58;26.12;99313.09;5069505;28;20529;-70
2021/06/27 08:24:47;;;;;;;8.40;5.40;;;;;;;39.08;25.69;99313.78;5070795;28;20478;-69
2021/06/27 08:27:13;;;;;;;9.55;5.72;;;;;;;39.33;25.01;99319.91;5068835;28;20033;-70
2021/06/27 08:29:39;;;;;;;7.93;5.28;;;;;;;39.23;24.70;99300.50;5068421;28;20341;-70
2021/06/27 08:32:05;;;;;;;6.85;5.03;;;;;;;39.18;24.64;99314.03;5068543;28;20074;-70
2021/06/27 08:34:31;;;;;;;13.10;5.93;;;;;;;39.27;24.37;99309.91;5068336;28;20056;-69
2021/06/27 08:36:57;;;;;;;7.88;4.97;;;;;;;38.96;24.87;99312.88;5067180;28;20083;-68
2021/06/27 08:39:23;;;;;;;10.82;4.85;;;;;;;39.11;24.18;99316.03;5065427;28;20044;-68
2021/06/27 08:41:49;;;;;;;7.22;5.10;;;;;;;38.48;24.00;99310.91;5067430;28;20048;-69
2021/06/27 08:44:15;;;;;;;12.48;4.72;;;;;;;38.13;25.43;99296.97;5065959;28;20516;-69
2021/06/27 08:46:42;;;;;;;12.63;5.10;;;;;;;38.15;25.75;99300.34;5064854;28;20048;-68
2021/06/27 08:49:09;;;;;;;8.27;5.50;;;;;;;36.72;27.67;99289.13;5032138;28;20156;-67
2021/06/27 08:51:41;;;;;;;13.25;11.23;;;;;;;37.34;26.27;99284.00;5066249;28;20056;-67
2021/06/27 08:54:09;;;;;;;6.90;5.35;;;;;;;37.98;25.97;99294.59;5065609;28;20047;-68
2021/06/27 08:56:35;;;;;;;11.40;5.88;;;;;;;38.05;26.42;99294.53;5065892;28;20052;-68
2021/06/27 08:59:02;;;;;;;12.85;6.00;;;;;;;38.50;25.32;99286.91;5015887;28;20040;-68
2021/06/27 09:01:28;;;;;;;8.13;5.45;;;;;;;38.06;25.85;99272.47;5066831;28;20072;-69
2021/06/27 09:03:55;;;;;;;9.50;5.05;;;;;;;37.37;26.50;99281.66;5067350;28;20083;-70
2021/06/27 09:06:39;;;;;;;8.07;5.47;;;;;;;37.11;28.40;99285.34;5033531;28;20047;-68
2021/06/27 09:09:12;;;;;;;8.80;5.53;;;;;;;36.11;30.08;99296.81;5066873;28;20055;-68
2021/06/27 09:11:39;;;;;;;9.60;6.20;;;;;;;34.81;32.02;99283.66;5065914;28;20049;-67
2021/06/27 09:14:28;;;;;;;11.07;6.50;;;;;;;35.37;31.39;99289.69;5066730;28;20044;-68
2021/06/27 09:17:20;;;;;;;9.45;6.55;;;;;;;36.46;29.63;99283.78;5049262;28;20129;-68
2021/06/27 09:19:54;;;;;;;12.45;5.50;;;;;;;35.95;29.58;99281.78;5067327;28;20045;-68
2021/06/27 09:22:22;;;;;;;8.43;5.78;;;;;;;35.26;29.90;99272.09;5068313;28;20047;-67
2021/06/27 09:24:48;;;;;;;9.82;5.88;;;;;;;35.09;31.38;99281.69;5032301;28;20508;-67
2021/06/27 09:27:24;;;;;;;8.60;6.20;;;;;;;34.78;31.58;99284.06;5066906;28;20056;-68
2021/06/27 09:29:55;;;;;;;11.52;6.30;;;;;;;34.99;32.30;99279.38;5065812;28;20056;-67
2021/06/27 09:32:24;;;;;;;;;;;;;;;34.84;31.57;99272.41;5069948;28;20048;-68
2021/06/27 09:34:50;;;;;;;7.57;6.32;;;;;;;34.64;31.57;99258.72;5036063;28;19975;-67
2021/06/27 09:37:26;;;;;;;7.28;5.78;;;;;;;34.38;31.95;99281.19;5053650;28;20576;-67
2021/06/27 09:40:00;;;;;;;8.27;5.70;;;;;;;34.25;32.13;99265.63;5070571;28;20047;-66
2021/06/27 09:42:28;;;;;;;11.63;6.30;;;;;;;34.30;32.77;99260.44;5068325;28;20040;-68
2021/06/27 09:45:01;;;;;;;10.45;6.00;;;;;;;34.06;33.45;99264.47;5035898;28;20397;-67
2021/06/27 09:47:27;;;;;;;14.00;6.90;;;;;;;34.14;33.52;99262.63;5070341;28;20059;-67
2021/06/27 09:49:54;;;;;;;10.85;6.25;;;;;;;34.69;33.51;99250.78;5052120;28;20040;-68
2021/06/27 09:52:39;;;;;;;12.75;6.50;;;;;;;34.33;32.86;99262.78;5034725;28;20098;-67
2021/06/27 09:55:07;;;;;;;12.32;6.75;;;;;;;34.45;32.53;99254.06;5070007;28;20036;-67
2021/06/27 09:57:33;;;;;;;9.65;6.28;;;;;;;34.24;33.61;99258.53;5068132;28;20107;-67
2021/06/27 09:59:58;;;;;;;9.73;6.60;;;;;;;34.10;33.78;99243.19;5070120;28;20549;-67
2021/06/27 10:02:24;;;;;;;9.90;6.57;;;;;;;33.64;34.18;99249.13;5071961;28;20509;-67
2021/06/27 10:04:50;;;;;;;13.18;6.55;;;;;;;33.55;34.52;99250.31;5070113;28;20085;-67
2021/06/27 10:07:16;;;;;;;13.43;6.65;;;;;;;33.97;33.97;99251.25;5053123;28;20040;-66
2021/06/27 10:09:42;;;;;;;8.98;6.30;;;;;;;34.09;33.93;99239.63;5069641;28;20467;-66
2021/06/27 10:12:09;;;;;;;14.13;6.80;;;;;;;33.77;33.81;99227.50;5069968;28;20049;-67
2021/06/27 10:14:55;;;;;;;16.67;7.47;;;;;;;33.59;34.50;99229.06;5053260;28;20036;-67
2021/06/27 10:17:23;;;;;;;17.17;7.38;;;;;;;33.60;34.61;99242.41;5052991;28;20044;-67
2021/06/27 10:19:50;;;;;;;10.20;6.47;;;;;;;33.60;34.15;99241.59;5053052;28;20425;-68
2021/06/27 10:22:16;;;;;;;7.32;6.70;;;;;;;33.69;33.96;99234.97;5070006;28;20083;-67
2021/06/27 10:24:42;;;;;;;9.57;6.65;;;;;;;33.54;35.88;99242.38;5053923;28;20072;-67
2021/06/27 10:27:09;;;;;;;7.63;6.82;;;;;;;33.43;35.65;99251.84;5069203;28;20044;-67
2021/06/27 10:29:42;;;;;;;9.77;6.75;;;;;;;33.30;36.24;99240.91;5053146;28;20060;-64
2021/06/27 10:32:08;;;;;;;12.18;6.50;;;;;;;33.38;34.12;99232.63;5052173;28;20413;-68
2021/06/27 10:34:34;;;;;;;11.60;6.07;;;;;;;33.20;35.54;99232.22;5070959;28;20048;-67
2021/06/27 10:37:39;;;;;;;10.57;6.78;;;;;;;33.21;36.29;99236.59;5069493;28;20044;-67
2021/06/27 10:40:16;;;;;;;7.35;6.65;;;;;;;33.06;36.20;99239.41;5069396;28;20420;-67
2021/06/27 10:42:51;;;;;;;11.73;6.70;;;;;;;33.22;35.91;99232.88;5070902;28;20049;-67
2021/06/27 10:45:22;;;;;;;13.90;6.45;;;;;;;33.32;35.59;99217.97;5070218;28;20053;-68
2021/06/27 10:47:48;;;;;;;7.78;6.32;;;;;;;33.66;35.36;99205.53;5069988;28;20044;-66
2021/06/27 10:50:15;;;;;;;13.90;6.72;;;;;;;33.74;35.49;99221.63;5070174;28;20040;-66
2021/06/27 10:52:50;;;;;;;7.38;6.57;;;;;;;33.14;35.30;99221.13;5019331;28;20040;-66
2021/06/27 10:55:20;;;;;;;22.45;7.03;;;;;;;33.32;36.22;99214.41;5070254;28;20080;-67
2021/06/27 10:57:53;;;;;;;13.75;7.07;;;;;;;33.93;35.60;99218.25;5070047;28;20452;-67
2021/06/27 11:00:20;;;;;;;16.40;6.80;;;;;;;34.11;33.93;99221.25;5068867;28;20048;-66
2021/06/27 11:02:46;;;;;;;13.75;6.88;;;;;;;33.77;34.50;99210.38;5070380;28;20141;-68
2021/06/27 11:05:28;;;;;;;7.78;6.55;;;;;;;33.99;34.24;99220.16;5069483;28;20036;-70
2021/06/27 11:07:55;;;;;;;9.05;6.97;;;;;;;34.07;33.82;99205.56;5069291;28;20094;-69
2021/06/27 11:10:20;;;;;;;7.53;6.32;;;;;;;33.90;34.16;99210.50;5067830;28;20040;-67
2021/06/27 11:12:56;;;;;;;16.27;6.82;;;;;;;33.69;34.35;99203.25;5070526;28;20040;-69
2021/06/27 11:15:23;;;;;;;12.43;6.25;;;;;;;33.41;35.23;99194.25;5068951;28;20057;-68
2021/06/27 11:17:50;;;;;;;16.75;6.30;;;;;;;33.28;34.98;99180.56;5035476;28;20045;-70
2021/06/27 11:20:16;;;;;;;14.30;6.93;;;;;;;33.18;35.46;99183.63;5070077;28;20040;-68
2021/06/27 11:22:47;;;;;;;10.25;6.60;;;;;;;33.34;35.04;99193.38;5068882;28;20036;-69
2021/06/27 11:25:33;;;;;;;7.40;6.50;;;;;;;33.15;33.95;99184.00;5035426;28;20052;-71